Time;durP1;ratioP1;P1;durP2;ratioP2;P2;SDS_P1;SDS_P2;PMS_P1;PMS_P2;Temp;Humidity;BMP_temperature;BMP_pressure;BME280_temperature;BME280_humidity;BME280_pressure;Samples;Min_cycle;Max_cycle;Signal;HPM_P1;HPM_P2
2022/03/28 00:00:21;;;;;;;22.92;16.55;;;;;;;;;;5034341;28;20496;-74
2022/03/28 00:02:46;;;;;;;23.95;16.27;;;;;;;;;;5034064;28;20057;-74
2022/03/28 00:05:15;;;;;;;24.23;16.85;;;;;;;;;;5034275;28;20389;-74
2022/03/28 00:07:41;;;;;;;25.08;16.80;;;;;;;;;;5032897;28;20025;-74
2022/03/28 00:10:06;;;;;;;23.50;16.17;;;;;;;;;;5034070;28;20473;-74
2022/03/28 00:12:33;;;;;;;30.70;17.88;;;;;;;;;;5034037;28;20392;-74
2022/03/28 00:14:58;;;;;;;23.52;16.65;;;;;;;;;;5034136;28;20079;-74
2022/03/28 00:17:23;;;;;;;31.38;18.77;;;;;;;;;;5032796;28;20440;-74
2022/03/28 00:19:48;;;;;;;25.40;18.10;;;;;;;;;;5032546;28;20034;-75
2022/03/28 00:22:14;;;;;;;28.17;19.23;;;;;;;;;;5033888;28;20026;-75
2022/03/28 00:24:39;;;;;;;28.73;19.27;;;;;;;;;;5033945;28;20056;-74
2022/03/28 00:27:04;;;;;;;24.63;18.95;;;;;;;;;;5033797;28;20025;-73
2022/03/28 00:29:29;;;;;;;28.38;20.15;;;;;;;;;;5033798;28;20465;-74
2022/03/28 00:31:54;;;;;;;27.10;19.00;;;;;;;;;;5033677;28;20067;-75
2022/03/28 00:34:21;;;;;;;27.63;19.08;;;;;;;;;;5033809;28;20017;-74
2022/03/28 00:36:48;;;;;;;27.35;19.45;;;;;;;;;;5033712;28;20009;-73
2022/03/28 00:39:13;;;;;;;28.83;20.23;;;;;;;;;;5033555;28;20124;-74
2022/03/28 00:41:38;;;;;;;32.53;20.92;;;;;;;;;;5033558;28;20532;-74
2022/03/28 00:44:05;;;;;;;32.67;22.08;;;;;;;;;;5033484;28;20438;-73
2022/03/28 00:46:32;;;;;;;31.70;21.55;;;;;;;;;;5032159;28;20460;-73
2022/03/28 00:48:58;;;;;;;30.10;20.60;;;;;;;;;;5032091;28;20032;-73
2022/03/28 00:51:23;;;;;;;32.63;22.55;;;;;;;;;;5033369;28;20014;-73
2022/03/28 00:53:50;;;;;;;31.02;21.90;;;;;;;;;;5033217;28;20415;-75
2022/03/28 00:56:15;;;;;;;30.83;21.42;;;;;;;;;;5032020;28;20028;-73
2022/03/28 00:58:41;;;;;;;31.27;21.60;;;;;;;;;;5033273;28;20479;-73
2022/03/28 01:01:12;;;;;;;30.05;22.10;;;;;;;;;;5032711;28;20397;-73
2022/03/28 01:03:37;;;;;;;32.33;22.95;;;;;;;;;;5031868;28;20021;-75
2022/03/28 01:06:03;;;;;;;35.90;24.33;;;;;;;;;;5033216;28;20025;-76
2022/03/28 01:08:28;;;;;;;31.83;22.60;;;;;;;;;;5033118;28;20056;-74
2022/03/28 01:10:55;;;;;;;32.03;22.23;;;;;;;;;;5015328;28;20041;-73
2022/03/28 01:13:20;;;;;;;31.73;23.63;;;;;;;;;;5032949;28;20017;-74
2022/03/28 01:15:46;;;;;;;34.67;24.05;;;;;;;;;;5031826;28;20120;-73
2022/03/28 01:18:11;;;;;;;36.10;26.10;;;;;;;;;;5032940;28;20026;-76
2022/03/28 01:20:38;;;;;;;37.75;25.52;;;;;;;;;;5043977;22;20076;-78
2022/03/28 01:23:03;;;;;;;35.17;25.05;;;;;;;;;;5022292;28;20022;-80
2022/03/28 01:25:29;;;;;;;35.15;25.52;;;;;;;;;;5017259;28;20502;-78
2022/03/28 01:27:55;;;;;;;42.03;26.90;;;;;;;;;;5023360;28;20077;-78
2022/03/28 01:30:20;;;;;;;45.58;28.17;;;;;;;;;;5025985;28;20045;-79
2022/03/28 01:32:47;;;;;;;39.25;28.52;;;;;;;;;;5026214;28;20111;-80
2022/03/28 01:35:12;;;;;;;39.78;27.67;;;;;;;;;;5021843;28;20109;-79
2022/03/28 01:37:38;;;;;;;40.72;27.83;;;;;;;;;;5014914;28;20054;-79
2022/03/28 01:40:04;;;;;;;39.63;28.27;;;;;;;;;;5013645;28;20049;-79
2022/03/28 01:42:29;;;;;;;41.53;29.33;;;;;;;;;;5013281;28;20022;-77
2022/03/28 01:44:55;;;;;;;43.47;29.20;;;;;;;;;;5013645;28;20033;-78
2022/03/28 01:47:20;;;;;;;40.97;29.23;;;;;;;;;;5013362;28;20473;-80
2022/03/28 01:49:45;;;;;;;44.40;29.20;;;;;;;;;;5013476;28;20351;-79
2022/03/28 01:52:10;;;;;;;44.08;29.73;;;;;;;;;;5013941;28;20125;-78
2022/03/28 01:54:36;;;;;;;42.95;28.55;;;;;;;;;;5014118;28;20014;-78
2022/03/28 01:57:01;;;;;;;43.17;30.48;;;;;;;;;;5013370;28;20018;-77
2022/03/28 01:59:26;;;;;;;47.22;29.05;;;;;;;;;;5013555;28;20018;-79
2022/03/28 02:01:51;;;;;;;46.67;30.00;;;;;;;;;;5012414;28;20018;-78
2022/03/28 02:04:16;;;;;;;49.90;29.40;;;;;;;;;;5013152;28;20026;-80
2022/03/28 02:06:41;;;;;;;45.17;30.80;;;;;;;;;;5013294;28;20493;-78
2022/03/28 02:09:07;;;;;;;42.55;30.35;;;;;;;;;;5013724;28;20076;-78
2022/03/28 02:11:32;;;;;;;46.10;31.80;;;;;;;;;;5017659;28;20024;-82
2022/03/28 02:13:57;;;;;;;45.00;31.63;;;;;;;;;;5021699;28;20072;-78
2022/03/28 02:16:23;;;;;;;48.42;32.67;;;;;;;;;;5028557;28;20030;-78
2022/03/28 02:18:48;;;;;;;48.75;32.83;;;;;;;;;;5023148;28;20022;-77
2022/03/28 02:21:13;;;;;;;48.45;32.45;;;;;;;;;;5024604;28;20069;-77
2022/03/28 02:23:39;;;;;;;47.47;31.77;;;;;;;;;;5024692;28;20017;-78
2022/03/28 02:26:04;;;;;;;48.45;32.15;;;;;;;;;;5023028;28;20029;-76
2022/03/28 02:28:29;;;;;;;46.33;31.30;;;;;;;;;;5018679;28;20129;-76
2022/03/28 02:30:55;;;;;;;46.72;30.75;;;;;;;;;;5015224;28;20484;-78
2022/03/28 02:33:20;;;;;;;45.42;31.50;;;;;;;;;;5014001;28;20022;-79
2022/03/28 02:35:46;;;;;;;46.30;31.58;;;;;;;;;;5013063;28;20057;-78
2022/03/28 02:38:11;;;;;;;50.35;32.35;;;;;;;;;;5013468;28;20080;-79
2022/03/28 02:40:36;;;;;;;48.78;32.85;;;;;;;;;;5012485;28;20026;-80
2022/03/28 02:43:03;;;;;;;48.45;33.35;;;;;;;;;;5012108;28;20026;-78
2022/03/28 02:45:32;;;;;;;46.35;32.58;;;;;;;;;;5011328;28;20026;-82
2022/03/28 02:47:59;;;;;;;54.40;34.13;;;;;;;;;;5012466;28;20060;-82
2022/03/28 02:50:24;;;;;;;46.88;33.10;;;;;;;;;;5012264;28;20018;-79
2022/03/28 02:52:49;;;;;;;50.35;33.80;;;;;;;;;;5012128;28;20362;-79
2022/03/28 02:55:15;;;;;;;50.53;33.08;;;;;;;;;;5012266;28;20022;-77
2022/03/28 02:57:40;;;;;;;60.30;37.25;;;;;;;;;;5012359;28;20374;-79
2022/03/28 03:00:10;;;;;;;49.45;34.92;;;;;;;;;;5012555;28;20458;-78
2022/03/28 03:02:36;;;;;;;48.20;32.75;;;;;;;;;;5012336;28;20025;-78
2022/03/28 03:05:02;;;;;;;47.53;32.38;;;;;;;;;;5012755;28;20026;-78
2022/03/28 03:07:27;;;;;;;46.72;32.65;;;;;;;;;;5010843;28;20065;-78
2022/03/28 03:09:53;;;;;;;48.85;32.35;;;;;;;;;;5011974;28;20396;-78
2022/03/28 03:12:18;;;;;;;46.92;32.30;;;;;;;;;;5012079;28;20017;-79
2022/03/28 03:14:43;;;;;;;51.55;33.60;;;;;;;;;;5011851;28;20030;-79
2022/03/28 03:17:08;;;;;;;49.85;33.45;;;;;;;;;;5011883;28;20076;-77
2022/03/28 03:19:34;;;;;;;50.95;34.53;;;;;;;;;;5010513;28;20021;-79
2022/03/28 03:21:59;;;;;;;53.00;33.60;;;;;;;;;;5011817;28;20026;-78
2022/03/28 03:24:24;;;;;;;53.70;33.70;;;;;;;;;;5013453;28;20026;-78
2022/03/28 03:26:49;;;;;;;52.92;35.85;;;;;;;;;;5017091;28;20022;-80
2022/03/28 03:29:14;;;;;;;51.10;33.83;;;;;;;;;;5015196;28;20032;-81
2022/03/28 03:31:40;;;;;;;54.20;35.20;;;;;;;;;;5015289;28;20021;-79
2022/03/28 03:34:06;;;;;;;54.58;33.97;;;;;;;;;;5015122;28;20091;-81
2022/03/28 03:36:32;;;;;;;51.35;32.58;;;;;;;;;;5015320;28;20014;-79
2022/03/28 03:38:57;;;;;;;57.10;35.05;;;;;;;;;;5014794;28;20065;-79
2022/03/28 03:41:22;;;;;;;49.63;33.42;;;;;;;;;;5015619;28;20022;-79
2022/03/28 03:43:48;;;;;;;55.30;34.65;;;;;;;;;;5015730;28;20049;-79
2022/03/28 03:46:13;;;;;;;54.70;33.97;;;;;;;;;;5015607;28;20030;-77
2022/03/28 03:48:39;;;;;;;57.05;35.72;;;;;;;;;;5015240;28;20030;-77
2022/03/28 03:51:04;;;;;;;49.90;33.78;;;;;;;;;;5015212;28;20014;-81
2022/03/28 03:53:29;;;;;;;51.50;34.04;;;;;;;;;;5014746;28;20025;-79
2022/03/28 03:55:54;;;;;;;53.88;35.42;;;;;;;;;;5014574;28;20379;-79
2022/03/28 03:58:20;;;;;;;51.03;33.92;;;;;;;;;;5015111;28;20049;-78
2022/03/28 04:00:45;;;;;;;51.50;34.10;;;;;;;;;;5014639;28;20020;-80
2022/03/28 04:03:10;;;;;;;51.92;34.78;;;;;;;;;;5014368;28;20025;-80
2022/03/28 04:05:37;;;;;;;52.50;34.38;;;;;;;;;;5013275;28;20445;-77
2022/03/28 04:08:04;;;;;;;57.38;34.30;;;;;;;;;;5014576;28;20080;-78
2022/03/28 04:10:30;;;;;;;49.53;33.00;;;;;;;;;;5014390;28;20076;-77
2022/03/28 04:12:55;;;;;;;50.55;33.40;;;;;;;;;;5014431;28;20026;-78
2022/03/28 04:15:21;;;;;;;55.83;34.80;;;;;;;;;;5014356;28;20109;-80
2022/03/28 04:17:46;;;;;;;57.20;35.20;;;;;;;;;;5014198;28;20026;-77
2022/03/28 04:20:12;;;;;;;54.28;34.78;;;;;;;;;;5013022;28;20088;-80
2022/03/28 04:22:39;;;;;;;54.63;33.70;;;;;;;;;;5014225;28;20080;-79
2022/03/28 04:25:04;;;;;;;52.80;34.35;;;;;;;;;;5012887;28;20026;-77
2022/03/28 04:27:30;;;;;;;48.72;32.95;;;;;;;;;;5014172;28;20022;-79
2022/03/28 04:29:55;;;;;;;59.78;37.97;;;;;;;;;;5014040;28;20022;-78
2022/03/28 04:32:20;;;;;;;57.78;36.83;;;;;;;;;;5013939;28;20018;-79
2022/03/28 04:34:45;;;;;;;56.00;35.28;;;;;;;;;;5014350;28;20391;-78
2022/03/28 04:37:10;;;;;;;55.45;34.38;;;;;;;;;;5013399;28;20029;-78
2022/03/28 04:39:36;;;;;;;55.06;33.90;;;;;;;;;;5013870;28;20045;-78
2022/03/28 04:42:01;;;;;;;57.17;34.67;;;;;;;;;;5013779;28;20049;-79
2022/03/28 04:44:26;;;;;;;52.28;34.05;;;;;;;;;;5014302;28;20077;-78
2022/03/28 04:46:51;;;;;;;57.22;34.42;;;;;;;;;;5013855;28;20029;-78
2022/03/28 04:49:17;;;;;;;54.78;34.25;;;;;;;;;;5013804;28;20478;-80
2022/03/28 04:51:43;;;;;;;52.13;33.63;;;;;;;;;;5012202;28;20464;-77
2022/03/28 04:54:08;;;;;;;50.30;33.33;;;;;;;;;;5013369;28;20046;-78
2022/03/28 04:56:34;;;;;;;54.10;35.50;;;;;;;;;;5013488;28;20449;-81
2022/03/28 04:59:00;;;;;;;54.92;34.40;;;;;;;;;;5013573;28;20041;-78
2022/03/28 05:01:28;;;;;;;50.47;34.63;;;;;;;;;;5013226;28;20033;-78
2022/03/28 05:03:53;;;;;;;51.88;33.50;;;;;;;;;;5011809;28;20038;-79
2022/03/28 05:06:19;;;;;;;49.70;32.80;;;;;;;;;;5012065;28;20029;-80
2022/03/28 05:08:44;;;;;;;51.17;31.40;;;;;;;;;;5012957;28;20281;-79
2022/03/28 05:11:09;;;;;;;53.28;33.45;;;;;;;;;;5013193;28;20022;-78
2022/03/28 05:13:34;;;;;;;49.95;31.90;;;;;;;;;;5012703;28;20450;-79
2022/03/28 05:15:59;;;;;;;52.97;33.45;;;;;;;;;;5013027;28;20101;-79
2022/03/28 05:18:25;;;;;;;47.85;31.85;;;;;;;;;;5013132;28;20049;-79
2022/03/28 05:20:50;;;;;;;49.30;31.70;;;;;;;;;;5012863;28;20398;-80
2022/03/28 05:23:15;;;;;;;48.05;31.95;;;;;;;;;;5012542;28;20026;-78
2022/03/28 05:25:41;;;;;;;48.33;31.65;;;;;;;;;;5013129;28;20029;-78
2022/03/28 05:28:06;;;;;;;46.92;31.65;;;;;;;;;;5012448;28;20481;-79
2022/03/28 05:30:31;;;;;;;48.85;30.92;;;;;;;;;;5012300;28;20101;-80
2022/03/28 05:32:56;;;;;;;67.03;38.65;;;;;;;;;;5012272;28;20018;-80
2022/03/28 05:35:22;;;;;;;46.78;30.80;;;;;;;;;;5012549;28;20470;-78
2022/03/28 05:37:47;;;;;;;46.22;30.95;;;;;;;;;;5012700;28;20500;-80
2022/03/28 05:40:13;;;;;;;49.80;31.58;;;;;;;;;;5012410;28;20444;-80
2022/03/28 05:42:38;;;;;;;46.72;30.23;;;;;;;;;;5012575;28;20028;-79
2022/03/28 05:45:04;;;;;;;44.55;30.85;;;;;;;;;;5012460;28;20289;-78
2022/03/28 05:47:29;;;;;;;50.70;32.00;;;;;;;;;;5012276;28;20030;-79
2022/03/28 05:49:54;;;;;;;48.15;29.98;;;;;;;;;;5010716;28;20484;-78
2022/03/28 05:52:20;;;;;;;46.65;29.25;;;;;;;;;;5012107;28;20017;-80
2022/03/28 05:54:45;;;;;;;49.00;30.92;;;;;;;;;;5012669;28;20049;-79
2022/03/28 05:57:11;;;;;;;43.83;28.70;;;;;;;;;;5012060;28;20101;-80
2022/03/28 05:59:36;;;;;;;49.63;30.45;;;;;;;;;;5010837;28;20370;-78
2022/03/28 06:02:01;;;;;;;46.88;29.75;;;;;;;;;;5012016;28;20475;-79
2022/03/28 06:04:26;;;;;;;46.08;28.83;;;;;;;;;;5012272;28;20032;-80
2022/03/28 06:06:52;;;;;;;50.88;29.02;;;;;;;;;;5012092;28;20021;-78
2022/03/28 06:09:18;;;;;;;45.10;30.40;;;;;;;;;;5012107;28;20049;-80
2022/03/28 06:11:43;;;;;;;46.58;28.02;;;;;;;;;;5011805;28;20440;-77
2022/03/28 06:14:09;;;;;;;46.60;29.13;;;;;;;;;;5010729;28;20436;-80
2022/03/28 06:16:34;;;;;;;49.92;30.33;;;;;;;;;;5011830;28;20481;-82
2022/03/28 06:18:59;;;;;;;44.03;29.15;;;;;;;;;;5010681;28;20036;-81
2022/03/28 06:21:25;;;;;;;45.95;29.67;;;;;;;;;;5010325;28;20033;-78
2022/03/28 06:23:50;;;;;;;45.67;29.42;;;;;;;;;;5011782;28;20026;-78
2022/03/28 06:26:17;;;;;;;44.42;28.10;;;;;;;;;;5010728;28;20022;-80
2022/03/28 06:28:42;;;;;;;44.20;27.45;;;;;;;;;;5011979;28;20025;-80
2022/03/28 06:31:08;;;;;;;43.55;27.23;;;;;;;;;;5011345;28;20025;-79
2022/03/28 06:33:33;;;;;;;42.85;26.85;;;;;;;;;;5011572;28;20018;-79
2022/03/28 06:35:59;;;;;;;40.97;27.73;;;;;;;;;;5011768;28;20079;-79
2022/03/28 06:38:24;;;;;;;43.25;26.67;;;;;;;;;;5012944;28;20104;-80
2022/03/28 06:40:49;;;;;;;43.95;25.83;;;;;;;;;;5013126;28;20032;-78
2022/03/28 06:43:15;;;;;;;47.75;27.52;;;;;;;;;;5011890;28;20454;-80
2022/03/28 06:45:40;;;;;;;41.03;26.58;;;;;;;;;;5012328;28;20120;-78
2022/03/28 06:48:06;;;;;;;44.22;28.00;;;;;;;;;;5013916;28;20036;-80
2022/03/28 06:50:33;;;;;;;45.17;27.55;;;;;;;;;;5013232;28;20469;-79
2022/03/28 06:52:58;;;;;;;42.45;27.00;;;;;;;;;;5011437;28;20018;-77
2022/03/28 06:55:24;;;;;;;43.05;26.15;;;;;;;;;;5012703;28;20075;-78
2022/03/28 06:57:51;;;;;;;40.50;26.85;;;;;;;;;;5012739;28;20044;-78
2022/03/28 07:00:17;;;;;;;46.70;26.90;;;;;;;;;;5015621;28;20026;-77
2022/03/28 07:02:43;;;;;;;38.25;26.27;;;;;;;;;;5015964;28;20025;-79
2022/03/28 07:05:08;;;;;;;46.13;27.45;;;;;;;;;;5016027;28;20024;-78
2022/03/28 07:07:44;;;;;;;47.40;26.52;;;;;;;;;;5016147;28;20029;-80
2022/03/28 07:10:10;;;;;;;41.67;26.13;;;;;;;;;;5014798;28;20026;-78
2022/03/28 07:12:36;;;;;;;39.88;25.85;;;;;;;;;;5015633;28;20088;-78
2022/03/28 07:15:01;;;;;;;42.00;26.05;;;;;;;;;;5015970;28;20049;-77
2022/03/28 07:17:27;;;;;;;39.40;26.27;;;;;;;;;;5014039;28;20249;-76
2022/03/28 07:19:52;;;;;;;42.08;25.60;;;;;;;;;;5017780;28;20033;-77
2022/03/28 07:22:20;;;;;;;40.28;26.15;;;;;;;;;;5016488;28;20017;-79
2022/03/28 07:24:46;;;;;;;43.60;25.83;;;;;;;;;;5016172;28;20022;-77
2022/03/28 07:27:11;;;;;;;36.47;24.65;;;;;;;;;;5015589;28;20262;-78
2022/03/28 07:29:36;;;;;;;45.35;26.35;;;;;;;;;;5014236;28;20485;-79
2022/03/28 07:32:05;;;;;;;44.97;26.95;;;;;;;;;;5014324;28;20014;-77
2022/03/28 07:34:30;;;;;;;42.17;25.20;;;;;;;;;;5008837;28;20018;-77
2022/03/28 07:36:59;;;;;;;41.13;25.48;;;;;;;;;;5013060;28;20500;-79
2022/03/28 07:39:25;;;;;;;42.42;26.02;;;;;;;;;;5014690;28;20076;-76
2022/03/28 07:41:51;;;;;;;41.35;26.52;;;;;;;;;;5012688;28;20045;-80
2022/03/28 07:44:16;;;;;;;42.83;26.80;;;;;;;;;;5015058;28;20026;-77
2022/03/28 07:46:43;;;;;;;41.50;26.13;;;;;;;;;;5014954;28;20093;-79
2022/03/28 07:49:09;;;;;;;43.97;25.65;;;;;;;;;;5014406;28;20054;-77
2022/03/28 07:51:40;;;;;;;44.97;27.55;;;;;;;;;;5013417;28;20049;-80
2022/03/28 07:54:05;;;;;;;43.28;26.90;;;;;;;;;;5014386;28;20010;-77
2022/03/28 07:56:31;;;;;;;38.42;24.60;;;;;;;;;;5013441;28;20029;-79
2022/03/28 07:58:57;;;;;;;37.15;24.50;;;;;;;;;;5013082;28;20026;-80
2022/03/28 08:01:22;;;;;;;35.08;22.20;;;;;;;;;;5014116;28;20036;-81
2022/03/28 08:03:47;;;;;;;38.70;23.30;;;;;;;;;;5014073;28;20105;-78
2022/03/28 08:06:13;;;;;;;36.70;24.45;;;;;;;;;;5012838;28;20524;-79
2022/03/28 08:08:38;;;;;;;29.65;20.35;;;;;;;;;;5012525;28;20453;-79
2022/03/28 08:11:05;;;;;;;35.42;22.67;;;;;;;;;;5012860;28;20026;-78
2022/03/28 08:13:30;;;;;;;36.67;23.15;;;;;;;;;;5014136;28;20105;-78
2022/03/28 08:15:55;;;;;;;37.90;22.77;;;;;;;;;;5014044;28;20097;-77
2022/03/28 08:18:24;;;;;;;33.65;22.55;;;;;;;;;;5014077;28;20469;-78
2022/03/28 08:20:49;;;;;;;36.00;21.45;;;;;;;;;;5014032;28;20025;-78
2022/03/28 08:23:16;;;;;;;37.78;22.90;;;;;;;;;;5013741;28;20033;-78
2022/03/28 08:25:42;;;;;;;33.42;20.75;;;;;;;;;;5014198;28;20071;-79
2022/03/28 08:28:08;;;;;;;35.35;21.73;;;;;;;;;;5013783;28;20049;-78
2022/03/28 08:30:34;;;;;;;32.10;20.42;;;;;;;;;;5013789;28;20049;-79
2022/03/28 08:33:00;;;;;;;29.55;20.30;;;;;;;;;;5013527;28;20052;-78
2022/03/28 08:35:27;;;;;;;34.83;20.55;;;;;;;;;;5012325;28;20018;-79
2022/03/28 08:37:52;;;;;;;37.10;20.85;;;;;;;;;;5012389;28;20072;-77
2022/03/28 08:40:17;;;;;;;34.03;20.30;;;;;;;;;;5013777;28;20021;-78
2022/03/28 08:42:43;;;;;;;32.13;19.27;;;;;;;;;;5013438;28;20358;-79
2022/03/28 08:45:11;;;;;;;28.42;18.58;;;;;;;;;;5013430;28;20045;-79
2022/03/28 08:47:38;;;;;;;31.60;20.00;;;;;;;;;;5012012;28;20571;-79
2022/03/28 08:50:07;;;;;;;33.20;20.50;;;;;;;;;;5011904;28;20018;-80
2022/03/28 08:52:32;;;;;;;29.30;18.38;;;;;;;;;;5012687;28;20022;-81
2022/03/28 08:54:57;;;;;;;30.60;20.02;;;;;;;;;;5013890;28;20101;-78
2022/03/28 08:57:23;;;;;;;30.13;18.42;;;;;;;;;;5012580;28;20033;-81
2022/03/28 08:59:48;;;;;;;31.23;18.92;;;;;;;;;;5011930;28;20071;-83
2022/03/28 09:02:52;;;;;;;32.45;20.00;;;;;;;;;;5013499;28;20021;-78
2022/03/28 09:05:18;;;;;;;27.10;18.20;;;;;;;;;;4917518;29;20015;-80
2022/03/28 09:07:44;;;;;;;26.45;18.30;;;;;;;;;;4933438;29;20039;-78
2022/03/28 09:10:13;;;;;;;26.52;17.70;;;;;;;;;;4933649;29;20555;-78
2022/03/28 09:12:57;;;;;;;28.35;17.67;;;;;;;;;;4933044;29;20028;-79
2022/03/28 09:15:23;;;;;;;27.13;18.75;;;;;;;;;;4933823;29;20024;-79
2022/03/28 09:17:54;;;;;;;24.98;17.95;;;;;;;;;;4934910;29;20063;-80
2022/03/28 09:20:21;;;;;;;27.40;17.33;;;;;;;;;;4937976;29;20487;-81
2022/03/28 09:22:46;;;;;;;25.35;15.57;;;;;;;;;;4936130;29;20035;-81
2022/03/28 09:25:12;;;;;;;27.83;16.30;;;;;;;;;;4937004;29;20032;-82
2022/03/28 09:27:39;;;;;;;26.88;16.67;;;;;;;;;;4936949;29;20114;-80
2022/03/28 09:30:10;;;;;;;25.88;16.33;;;;;;;;;;4938676;29;20031;-81
2022/03/28 09:32:35;;;;;;;25.20;15.70;;;;;;;;;;4935736;29;20050;-80
2022/03/28 09:35:03;;;;;;;27.17;16.23;;;;;;;;;;4941578;28;20476;-79
2022/03/28 09:37:29;;;;;;;25.83;15.43;;;;;;;;;;5011245;28;20041;-79
2022/03/28 09:39:54;;;;;;;28.10;16.42;;;;;;;;;;5012182;28;20057;-78
2022/03/28 09:42:19;;;;;;;25.70;16.48;;;;;;;;;;5011924;28;20084;-80
2022/03/28 09:44:48;;;;;;;26.80;15.77;;;;;;;;;;5012561;28;20017;-80
2022/03/28 09:47:14;;;;;;;26.55;16.10;;;;;;;;;;5012301;28;20101;-79
2022/03/28 09:49:43;;;;;;;25.65;16.13;;;;;;;;;;5012734;28;20144;-79
2022/03/28 09:52:09;;;;;;;22.30;14.40;;;;;;;;;;5015616;28;20018;-78
2022/03/28 09:54:44;;;;;;;26.60;15.27;;;;;;;;;;5014229;28;20073;-79
2022/03/28 09:57:10;;;;;;;27.77;14.35;;;;;;;;;;5014164;28;20080;-79
2022/03/28 09:59:39;;;;;;;32.45;15.13;;;;;;;;;;5013713;28;20014;-78
2022/03/28 10:02:14;;;;;;;21.23;14.68;;;;;;;;;;5014444;28;20022;-81
2022/03/28 10:04:40;;;;;;;21.10;14.05;;;;;;;;;;5015395;28;20065;-78
2022/03/28 10:07:05;;;;;;;25.38;14.35;;;;;;;;;;5013642;28;20030;-79
2022/03/28 10:09:30;;;;;;;24.77;14.25;;;;;;;;;;5012196;28;20025;-79
2022/03/28 10:11:56;;;;;;;20.27;13.25;;;;;;;;;;5012146;28;20025;-79
2022/03/28 10:14:21;;;;;;;22.92;13.40;;;;;;;;;;5011636;28;20474;-79
2022/03/28 10:16:47;;;;;;;18.87;13.40;;;;;;;;;;5012169;28;20026;-80
2022/03/28 10:19:16;;;;;;;24.38;14.25;;;;;;;;;;5011954;28;20346;-79
2022/03/28 10:21:43;;;;;;;24.02;12.77;;;;;;;;;;5011318;28;20038;-79
2022/03/28 10:24:12;;;;;;;18.67;11.95;;;;;;;;;;5011452;28;20495;-80
2022/03/28 10:26:39;;;;;;;21.80;11.68;;;;;;;;;;5012328;28;20030;-79
2022/03/28 10:29:05;;;;;;;25.15;11.68;;;;;;;;;;5013314;28;20105;-81
2022/03/28 10:31:32;;;;;;;16.45;10.57;;;;;;;;;;5013713;28;20045;-80
2022/03/28 10:33:57;;;;;;;17.40;10.32;;;;;;;;;;5013142;28;20021;-79
2022/03/28 10:36:22;;;;;;;18.65;10.40;;;;;;;;;;5014718;28;20087;-79
2022/03/28 10:38:51;;;;;;;19.02;10.13;;;;;;;;;;5012276;28;20028;-80
2022/03/28 10:41:17;;;;;;;19.30;9.98;;;;;;;;;;5011732;28;20283;-80
2022/03/28 10:43:42;;;;;;;19.05;10.75;;;;;;;;;;5010104;28;20066;-79
2022/03/28 10:46:09;;;;;;;17.15;10.15;;;;;;;;;;5011343;28;20018;-80
2022/03/28 10:48:44;;;;;;;18.02;10.95;;;;;;;;;;5011018;28;20036;-80
2022/03/28 10:51:24;;;;;;;14.63;9.52;;;;;;;;;;5010042;28;20076;-80
2022/03/28 10:53:53;;;;;;;16.48;9.82;;;;;;;;;;5011756;28;20100;-81
2022/03/28 10:56:18;;;;;;;16.95;10.00;;;;;;;;;;5010051;28;20029;-80
2022/03/28 10:58:53;;;;;;;17.13;9.77;;;;;;;;;;5011548;28;20014;-80
2022/03/28 11:01:26;;;;;;;19.70;10.02;;;;;;;;;;5009966;28;20026;-78
2022/03/28 11:03:53;;;;;;;16.40;9.95;;;;;;;;;;5010991;28;20025;-78
2022/03/28 11:06:20;;;;;;;15.95;9.10;;;;;;;;;;5011042;28;20084;-78
2022/03/28 11:08:57;;;;;;;17.35;9.02;;;;;;;;;;5010838;28;20022;-77
2022/03/28 11:11:24;;;;;;;15.05;8.82;;;;;;;;;;5010765;28;20025;-77
2022/03/28 11:14:01;;;;;;;15.90;9.90;;;;;;;;;;5010933;28;20100;-79
2022/03/28 11:16:39;;;;;;;15.20;9.52;;;;;;;;;;5011061;28;20025;-78
2022/03/28 11:19:23;;;;;;;19.10;10.38;;;;;;;;;;5011195;28;20018;-79
2022/03/28 11:21:59;;;;;;;17.80;10.25;;;;;;;;;;5010410;28;20049;-79
2022/03/28 11:24:43;;;;;;;16.30;9.98;;;;;;;;;;5011426;28;20054;-79
2022/03/28 11:27:09;;;;;;;17.20;9.60;;;;;;;;;;5011295;28;20108;-79
2022/03/28 11:29:34;;;;;;;18.52;10.88;;;;;;;;;;5010777;28;20461;-78
2022/03/28 11:32:11;;;;;;;16.20;10.57;;;;;;;;;;5010654;28;20025;-80
2022/03/28 11:34:36;;;;;;;19.13;11.07;;;;;;;;;;5010956;28;20045;-78
2022/03/28 11:37:02;;;;;;;29.00;11.52;;;;;;;;;;5011076;28;20018;-79
2022/03/28 11:39:27;;;;;;;19.05;9.95;;;;;;;;;;5010712;28;20474;-79
2022/03/28 11:41:53;;;;;;;18.80;10.45;;;;;;;;;;5010262;28;20335;-79
2022/03/28 11:44:18;;;;;;;18.70;11.10;;;;;;;;;;5010741;28;20036;-80
2022/03/28 11:46:52;;;;;;;18.30;10.88;;;;;;;;;;5013794;28;20029;-79
2022/03/28 11:49:18;;;;;;;16.90;11.02;;;;;;;;;;5014224;28;20029;-81
2022/03/28 11:51:44;;;;;;;18.90;10.07;;;;;;;;;;5012682;28;20030;-79
2022/03/28 11:54:12;;;;;;;18.33;10.55;;;;;;;;;;5014246;28;20021;-79
2022/03/28 11:59:22;;;;;;;18.45;9.65;;;;;;;;;;5014514;28;20543;-80
2022/03/28 12:01:54;;;;;;;17.10;9.23;;;;;;;;;;5013002;28;20029;-80
2022/03/28 12:04:20;;;;;;;15.98;9.48;;;;;;;;;;5014301;28;20030;-80
2022/03/28 12:06:45;;;;;;;14.07;8.73;;;;;;;;;;5014105;28;20020;-79
2022/03/28 12:09:15;;;;;;;16.20;9.65;;;;;;;;;;5014149;28;20022;-80
2022/03/28 12:11:44;;;;;;;17.70;10.13;;;;;;;;;;5012418;28;20021;-79
2022/03/28 12:14:10;;;;;;;18.20;9.00;;;;;;;;;;5013896;28;20092;-79
2022/03/28 12:16:44;;;;;;;15.60;9.20;;;;;;;;;;5013841;28;20100;-79
2022/03/28 12:19:22;;;;;;;21.38;9.15;;;;;;;;;;5012573;28;20105;-79
2022/03/28 12:21:48;;;;;;;16.35;9.07;;;;;;;;;;5013611;28;20033;-79
2022/03/28 12:24:13;;;;;;;17.95;10.40;;;;;;;;;;5015219;28;20499;-79
2022/03/28 12:26:43;;;;;;;14.93;9.57;;;;;;;;;;5013944;28;20036;-80
2022/03/28 12:29:11;;;;;;;17.85;10.25;;;;;;;;;;5013733;28;20018;-79
2022/03/28 12:31:37;;;;;;;17.88;10.73;;;;;;;;;;5015086;28;20025;-80
2022/03/28 12:34:02;;;;;;;16.63;11.43;;;;;;;;;;5014100;28;20022;-79
2022/03/28 12:36:28;;;;;;;16.77;10.10;;;;;;;;;;5012719;28;20493;-80
2022/03/28 12:39:07;;;;;;;15.35;10.00;;;;;;;;;;5013988;28;20270;-80
2022/03/28 12:42:00;;;;;;;15.00;10.40;;;;;;;;;;5012569;28;20112;-80
2022/03/28 12:44:26;;;;;;;16.08;10.00;;;;;;;;;;5010823;28;20030;-80
2022/03/28 12:47:00;;;;;;;16.95;10.13;;;;;;;;;;5013474;28;20470;-80
2022/03/28 12:49:25;;;;;;;19.63;10.73;;;;;;;;;;5012056;28;20080;-80
2022/03/28 12:51:51;;;;;;;16.85;7.93;;;;;;;;;;5012015;28;20018;-80
2022/03/28 12:54:17;;;;;;;15.90;8.10;;;;;;;;;;5013376;28;20367;-80
2022/03/28 12:56:47;;;;;;;15.20;8.25;;;;;;;;;;5014241;28;20088;-80
2022/03/28 12:59:20;;;;;;;17.60;11.10;;;;;;;;;;5014711;28;20026;-80
2022/03/28 13:01:45;;;;;;;14.98;9.60;;;;;;;;;;5012675;28;20032;-81
2022/03/28 13:04:18;;;;;;;14.68;9.57;;;;;;;;;;5013214;28;20420;-79
2022/03/28 13:06:45;;;;;;;20.35;11.18;;;;;;;;;;5011825;28;20026;-80
2022/03/28 13:09:20;;;;;;;17.58;11.13;;;;;;;;;;5011692;28;20095;-80
2022/03/28 13:11:47;;;;;;;16.17;10.68;;;;;;;;;;5013443;28;20030;-81
2022/03/28 13:14:27;;;;;;;17.10;10.75;;;;;;;;;;5013054;28;20025;-80
2022/03/28 13:17:09;;;;;;;16.23;9.77;;;;;;;;;;5011501;28;20018;-80
2022/03/28 13:19:35;;;;;;;17.52;10.90;;;;;;;;;;5012750;28;20050;-81
2022/03/28 13:22:01;;;;;;;12.40;7.07;;;;;;;;;;5036065;23;20493;-79
2022/03/28 13:24:30;;;;;;;14.43;8.50;;;;;;;;;;5032622;28;20017;-77
2022/03/28 13:28:01;;;;;;;16.48;10.90;;;;;;;;;;5032996;28;20135;-78
2022/03/28 13:29:47;;;;;;;14.38;9.30;;;;;;;;;;5032526;28;20500;-79
2022/03/28 13:32:13;;;;;;;15.07;9.10;;;;;;;;;;5030897;28;20168;-79
2022/03/28 13:34:38;;;;;;;14.90;10.18;;;;;;;;;;5032553;28;20070;-78
2022/03/28 13:37:07;;;;;;;15.02;9.63;;;;;;;;;;5032722;28;20120;-78
2022/03/28 13:39:32;;;;;;;;;;;;;;;;;;5031589;28;20028;-78
2022/03/28 13:41:57;;;;;;;15.35;9.88;;;;;;;;;;5032099;28;19904;-79
2022/03/28 13:44:22;;;;;;;20.23;9.07;;;;;;;;;;5032756;28;20013;-78
2022/03/28 13:46:48;;;;;;;13.98;8.15;;;;;;;;;;5032433;28;20782;-79
2022/03/28 13:49:17;;;;;;;17.45;8.10;;;;;;;;;;5032511;28;20013;-79
2022/03/28 13:51:42;;;;;;;;;;;;;;;;;;5032846;28;20013;-79
2022/03/28 13:54:07;;;;;;;14.35;8.20;;;;;;;;;;5032263;28;19920;-78
2022/03/28 13:56:36;;;;;;;13.90;8.27;;;;;;;;;;5031962;28;20037;-79
2022/03/28 13:59:02;;;;;;;13.73;8.18;;;;;;;;;;5032354;28;20028;-79
2022/03/28 14:01:28;;;;;;;15.00;8.25;;;;;;;;;;5031958;28;20025;-79
2022/03/28 14:04:00;;;;;;;13.32;7.75;;;;;;;;;;5030356;28;20075;-80
2022/03/28 14:06:25;;;;;;;14.77;7.82;;;;;;;;;;5030410;28;20450;-80
2022/03/28 14:08:51;;;;;;;13.23;8.23;;;;;;;;;;5030790;28;20022;-79
2022/03/28 14:11:16;;;;;;;13.48;7.57;;;;;;;;;;5031620;28;20049;-81
2022/03/28 14:13:42;;;;;;;13.20;7.57;;;;;;;;;;5033140;28;20068;-79
2022/03/28 14:16:08;;;;;;;11.82;7.18;;;;;;;;;;5032361;28;20009;-79
2022/03/28 14:18:33;;;;;;;11.85;6.35;;;;;;;;;;5031755;28;20071;-79